createdAt,value
2019-02-26T00:00:47.350Z,14.67
2019-02-26T00:03:19.675Z,16.57
2019-02-26T00:05:49.867Z,19.90
2019-02-26T00:08:21.381Z,29.43
2019-02-26T00:10:47.795Z,18.73
2019-02-26T00:13:16.381Z,13.10
2019-02-26T00:15:46.011Z,23.03
2019-02-26T00:18:16.796Z,19.33
2019-02-26T00:20:45.279Z,17.30
2019-02-26T00:23:13.850Z,14.80
2019-02-26T00:25:42.461Z,14.37
2019-02-26T00:28:11.556Z,11.67
2019-02-26T00:30:42.486Z,11.40
2019-02-26T00:33:11.013Z,24.40
2019-02-26T00:35:41.530Z,14.33
2019-02-26T00:38:11.636Z,14.73
2019-02-26T00:40:41.059Z,19.50
2019-02-26T00:43:10.147Z,17.80
2019-02-26T00:45:39.163Z,15.07
2019-02-26T00:48:07.670Z,20.30
2019-02-26T00:50:37.420Z,22.13
2019-02-26T00:53:06.436Z,16.10
2019-02-26T00:55:37.359Z,20.33
2019-02-26T00:58:05.976Z,20.17
2019-02-26T01:00:35.557Z,14.23
2019-02-26T01:03:06.024Z,11.80
2019-02-26T01:05:36.126Z,25.97
2019-02-26T01:08:06.448Z,13.67
2019-02-26T01:10:36.723Z,15.23
2019-02-26T01:13:07.149Z,15.30
2019-02-26T01:15:35.529Z,17.53
2019-02-26T01:18:05.600Z,12.03
2019-02-26T01:20:34.204Z,13.47
2019-02-26T01:23:02.677Z,13.73
2019-02-26T01:25:31.176Z,15.00
2019-02-26T01:28:00.420Z,14.17
2019-02-26T01:30:31.286Z,18.07
2019-02-26T01:33:00.575Z,12.00
2019-02-26T01:35:30.811Z,12.20
2019-02-26T01:38:00.516Z,12.93
2019-02-26T01:40:29.310Z,13.50
2019-02-26T01:43:00.196Z,12.50
2019-02-26T01:45:29.997Z,13.47
2019-02-26T01:47:58.351Z,14.80
2019-02-26T01:50:28.399Z,14.60
2019-02-26T01:52:59.122Z,12.70
2019-02-26T01:55:27.750Z,12.37
2019-02-26T01:57:58.565Z,11.33
2019-02-26T02:00:26.611Z,14.87
2019-02-26T02:02:55.236Z,10.27
2019-02-26T02:05:25.702Z,12.17
2019-02-26T02:07:55.841Z,10.20
2019-02-26T02:10:24.553Z,12.27
2019-02-26T02:12:55.260Z,17.90
2019-02-26T02:15:23.742Z,11.03
2019-02-26T02:17:52.537Z,11.13
2019-02-26T02:20:21.664Z,14.43
2019-02-26T02:22:50.279Z,12.77
2019-02-26T02:25:18.902Z,12.30
2019-02-26T02:27:50.021Z,14.13
2019-02-26T02:30:23.180Z,12.73
2019-02-26T02:32:53.728Z,9.27
2019-02-26T02:35:19.601Z,17.40
2019-02-26T02:37:50.736Z,11.77
2019-02-26T02:40:18.466Z,10.00
2019-02-26T02:42:49.127Z,14.37
2019-02-26T02:45:20.717Z,10.50
2019-02-26T02:47:47.551Z,13.67
2019-02-26T02:50:18.485Z,12.70
2019-02-26T02:52:46.284Z,23.13
2019-02-26T02:55:18.619Z,11.20
2019-02-26T02:57:48.625Z,9.47
2019-02-26T03:00:17.125Z,13.03
2019-02-26T03:02:49.378Z,13.10
2019-02-26T03:05:15.943Z,11.47
2019-02-26T03:07:47.944Z,10.40
2019-02-26T03:10:15.358Z,13.97
2019-02-26T03:12:47.685Z,18.47
2019-02-26T03:15:16.097Z,10.33
2019-02-26T03:17:44.677Z,12.70
2019-02-26T03:20:14.259Z,10.87
2019-02-26T03:22:46.133Z,11.53
2019-02-26T03:25:22.995Z,10.90
2019-02-26T03:27:49.346Z,14.10
2019-02-26T03:30:31.343Z,14.40
2019-02-26T03:32:55.745Z,12.13
2019-02-26T03:35:23.260Z,9.97
2019-02-26T03:37:52.435Z,11.60
2019-02-26T03:40:23.892Z,15.90
2019-02-26T03:42:51.134Z,11.83
2019-02-26T03:45:23.846Z,14.60
2019-02-26T03:47:49.899Z,13.47
2019-02-26T03:50:19.349Z,13.73
2019-02-26T03:52:47.942Z,14.37
2019-02-26T03:55:18.864Z,11.60
2019-02-26T03:57:47.548Z,15.90
2019-02-26T04:00:20.345Z,10.50
2019-02-26T04:02:51.749Z,12.23
2019-02-26T04:05:19.506Z,13.50
2019-02-26T04:07:51.610Z,14.93
2019-02-26T04:10:18.240Z,10.27
2019-02-26T04:12:48.647Z,8.80
2019-02-26T04:15:24.238Z,10.23
2019-02-26T04:17:50.308Z,11.33
2019-02-26T04:20:18.887Z,15.80
2019-02-26T04:22:50.121Z,12.17
2019-02-26T04:25:35.480Z,12.67
2019-02-26T04:28:27.410Z,13.03
2019-02-26T04:30:58.681Z,11.00
2019-02-26T04:33:46.672Z,10.30
2019-02-26T04:36:20.307Z,13.63
2019-02-26T04:39:14.379Z,12.57
2019-02-26T04:41:48.376Z,14.20
2019-02-26T04:44:28.260Z,9.60
2019-02-26T04:46:57.138Z,24.13
2019-02-26T04:49:28.132Z,12.83
2019-02-26T04:51:56.319Z,14.00
2019-02-26T04:54:27.128Z,20.87
2019-02-26T04:56:55.506Z,11.90
2019-02-26T04:59:24.233Z,10.87
2019-02-26T05:01:55.138Z,11.27
2019-02-26T05:04:23.330Z,21.70
2019-02-26T05:06:51.849Z,23.70
2019-02-26T05:09:22.113Z,12.30
2019-02-26T05:11:50.592Z,10.37
2019-02-26T05:14:22.939Z,14.57
2019-02-26T05:16:49.304Z,13.40
2019-02-26T05:19:19.634Z,15.30
2019-02-26T05:21:48.928Z,10.77
2019-02-26T05:24:17.923Z,12.13
2019-02-26T05:26:47.571Z,13.20
2019-02-26T05:29:16.026Z,12.57
2019-02-26T05:31:44.459Z,22.60
2019-02-26T05:34:15.141Z,9.97
2019-02-26T05:36:46.032Z,11.97
2019-02-26T05:39:14.582Z,14.33
2019-02-26T05:41:43.411Z,10.30
2019-02-26T05:44:11.916Z,10.00
2019-02-26T05:46:40.468Z,12.10
2019-02-26T05:49:10.552Z,13.77
2019-02-26T05:51:39.072Z,12.17
2019-02-26T05:54:08.225Z,12.40
2019-02-26T05:56:40.767Z,7.83
2019-02-26T05:59:09.510Z,12.40
2019-02-26T06:01:38.063Z,9.55
2019-02-26T06:04:07.770Z,7.83
2019-02-26T06:06:36.766Z,9.93
2019-02-26T06:09:07.705Z,8.00
2019-02-26T06:11:39.171Z,15.83
2019-02-26T06:14:09.576Z,13.20
2019-02-26T06:16:36.770Z,12.40
2019-02-26T06:19:08.524Z,11.30
2019-02-26T06:21:41.823Z,12.23
2019-02-26T06:24:07.966Z,11.50
2019-02-26T06:26:38.122Z,9.00
2019-02-26T06:29:06.612Z,19.60
2019-02-26T06:31:37.141Z,14.70
2019-02-26T06:34:06.446Z,10.93
2019-02-26T06:36:35.490Z,12.20
2019-02-26T06:39:06.007Z,14.07
2019-02-26T06:41:34.605Z,18.10
2019-02-26T06:44:03.218Z,21.40
2019-02-26T06:46:33.664Z,24.20
2019-02-26T06:49:01.834Z,24.47
2019-02-26T06:51:30.838Z,18.60
2019-02-26T06:54:01.080Z,24.50
2019-02-26T06:56:30.182Z,16.87
2019-02-26T06:59:02.988Z,13.00
2019-02-26T07:01:32.759Z,37.17
2019-02-26T07:04:02.138Z,20.33
2019-02-26T07:06:32.625Z,18.33
2019-02-26T07:09:00.756Z,32.37
2019-02-26T07:11:31.456Z,42.90
2019-02-26T07:14:01.305Z,31.97
2019-02-26T07:16:29.571Z,27.33
2019-02-26T07:18:58.990Z,21.20
2019-02-26T07:21:28.446Z,27.03
2019-02-26T07:23:58.636Z,20.07
2019-02-26T07:26:27.042Z,22.30
2019-02-26T07:28:55.471Z,17.40
2019-02-26T07:31:24.698Z,15.17
2019-02-26T07:33:55.883Z,15.80
2019-02-26T07:36:25.880Z,30.20
2019-02-26T07:38:56.468Z,23.80
2019-02-26T07:41:26.095Z,19.50
2019-02-26T07:43:54.876Z,27.73
2019-02-26T07:46:23.349Z,22.80
2019-02-26T07:48:53.996Z,27.40
2019-02-26T07:51:21.987Z,38.20
2019-02-26T07:53:51.643Z,40.63
2019-02-26T07:56:21.186Z,37.50
2019-02-26T07:58:50.726Z,29.40
2019-02-26T08:01:19.176Z,24.30
2019-02-26T08:03:48.790Z,20.47
2019-02-26T08:06:17.785Z,19.70
2019-02-26T08:08:48.455Z,20.60
2019-02-26T08:11:16.391Z,15.97
2019-02-26T08:13:44.826Z,21.40
2019-02-26T08:16:13.281Z,19.30
2019-02-26T08:18:41.728Z,13.30
2019-02-26T08:21:10.158Z,16.17
2019-02-26T08:23:38.597Z,21.00
2019-02-26T08:26:07.028Z,21.53
2019-02-26T08:28:38.411Z,15.80
2019-02-26T08:31:05.867Z,12.13
2019-02-26T08:33:34.380Z,14.07
2019-02-26T08:36:02.835Z,15.03
2019-02-26T08:38:31.323Z,13.07
2019-02-26T08:40:59.759Z,17.40
2019-02-26T08:43:28.200Z,19.37
2019-02-26T08:45:56.637Z,14.87
2019-02-26T08:48:26.961Z,12.83
2019-02-26T08:50:55.939Z,14.73
2019-02-26T08:53:26.499Z,10.40
2019-02-26T08:55:56.308Z,13.20
2019-02-26T08:58:25.844Z,17.03
2019-02-26T09:00:55.030Z,11.93
2019-02-26T09:03:23.475Z,12.73
2019-02-26T09:05:53.843Z,7.43
2019-02-26T09:08:22.066Z,9.23
2019-02-26T09:10:50.491Z,11.30
2019-02-26T09:13:18.948Z,8.80
2019-02-26T09:15:47.427Z,18.40
2019-02-26T09:18:15.917Z,12.47
2019-02-26T09:20:44.386Z,10.50
2019-02-26T09:23:16.407Z,16.27
2019-02-26T09:25:42.993Z,18.60
2019-02-26T09:28:11.439Z,12.47
2019-02-26T09:30:40.859Z,9.97
2019-02-26T09:33:11.148Z,11.80
2019-02-26T09:35:39.717Z,11.53
2019-02-26T09:38:09.675Z,7.40
2019-02-26T09:40:38.120Z,10.13
2019-02-26T09:43:06.544Z,19.63
2019-02-26T09:45:34.986Z,12.90
2019-02-26T09:48:03.434Z,10.47
2019-02-26T09:50:31.894Z,10.43
2019-02-26T09:53:00.329Z,16.40
2019-02-26T09:55:28.760Z,14.67
2019-02-26T09:57:57.182Z,12.23
2019-02-26T10:00:29.009Z,17.93
2019-02-26T10:02:55.807Z,12.53
2019-02-26T10:05:24.250Z,8.77
2019-02-26T10:07:54.889Z,15.03
2019-02-26T10:10:28.256Z,12.30
2019-02-26T10:12:57.427Z,10.27
2019-02-26T10:15:26.076Z,12.33
2019-02-26T10:17:56.195Z,8.73
2019-02-26T10:20:29.578Z,8.10
2019-02-26T10:22:58.599Z,8.13
2019-02-26T10:25:31.088Z,8.00
2019-02-26T10:27:57.143Z,10.83
2019-02-26T10:30:27.696Z,9.90
2019-02-26T10:32:55.721Z,6.80
2019-02-26T10:35:32.470Z,13.40
2019-02-26T10:38:00.437Z,7.73
2019-02-26T10:40:35.204Z,12.90
2019-02-26T10:42:58.807Z,10.17
2019-02-26T10:45:35.929Z,12.03
2019-02-26T10:48:01.775Z,14.60
2019-02-26T10:50:31.979Z,10.10
2019-02-26T10:53:07.106Z,12.47
2019-02-26T10:55:37.997Z,13.07
2019-02-26T10:58:04.743Z,10.90
2019-02-26T11:00:34.782Z,16.90
2019-02-26T11:03:01.861Z,13.20
2019-02-26T11:05:30.396Z,11.33
2019-02-26T11:08:02.192Z,11.30
2019-02-26T11:10:29.019Z,14.07
2019-02-26T11:12:59.620Z,18.40
2019-02-26T11:15:30.262Z,13.03
2019-02-26T11:17:57.782Z,12.57
2019-02-26T11:20:28.338Z,11.53
2019-02-26T11:22:56.396Z,8.80
2019-02-26T11:25:27.204Z,12.50
2019-02-26T11:27:54.995Z,11.70
2019-02-26T11:30:27.218Z,13.00
2019-02-26T11:32:58.767Z,13.67
2019-02-26T11:35:27.106Z,12.70
2019-02-26T11:37:57.411Z,13.10
2019-02-26T11:40:29.601Z,8.27
2019-02-26T11:42:56.295Z,4.30
2019-02-26T11:45:25.555Z,7.80
2019-02-26T11:47:55.808Z,5.80
2019-02-26T11:50:27.984Z,5.07
2019-02-26T11:52:55.896Z,4.47
2019-02-26T11:55:26.378Z,6.50
2019-02-26T11:57:54.482Z,5.10
2019-02-26T12:00:50.405Z,5.30
2019-02-26T12:03:18.195Z,6.80
2019-02-26T12:05:46.667Z,6.10
2019-02-26T12:08:17.396Z,5.97
2019-02-26T12:10:45.283Z,7.23
2019-02-26T12:13:14.669Z,3.77
2019-02-26T12:15:44.068Z,3.87
2019-02-26T12:18:14.621Z,3.83
2019-02-26T12:20:43.459Z,4.90
2019-02-26T12:23:15.621Z,3.83
2019-02-26T12:25:43.036Z,5.80
2019-02-26T12:28:14.425Z,3.90
2019-02-26T12:30:44.780Z,3.13
2019-02-26T12:33:14.765Z,3.67
2019-02-26T12:35:43.801Z,6.07
2019-02-26T12:38:18.236Z,8.20
2019-02-26T12:40:44.675Z,5.17
2019-02-26T12:43:15.498Z,3.53
2019-02-26T12:45:42.781Z,3.63
2019-02-26T12:48:15.606Z,2.50
2019-02-26T12:50:41.432Z,3.27
2019-02-26T12:53:12.536Z,3.20
2019-02-26T12:55:42.310Z,4.63
2019-02-26T13:00:42.049Z,7.43
2019-02-26T13:03:12.701Z,4.50
2019-02-26T13:05:42.544Z,2.77
2019-02-26T13:08:14.807Z,8.60
2019-02-26T13:10:42.548Z,10.80
2019-02-26T13:13:11.155Z,4.60
2019-02-26T13:15:39.626Z,2.93
2019-02-26T13:18:09.600Z,4.67
2019-02-26T13:20:38.032Z,2.67
2019-02-26T13:23:17.033Z,3.03
2019-02-26T13:25:36.636Z,3.57
2019-02-26T13:28:05.114Z,3.77
2019-02-26T13:30:33.599Z,4.93
2019-02-26T13:33:05.350Z,4.53
2019-02-26T13:35:32.185Z,1.67
2019-02-26T13:38:02.669Z,4.10
2019-02-26T13:45:29.960Z,1.47
2019-02-26T13:48:01.357Z,2.57
2019-02-26T13:50:29.428Z,1.40
2019-02-26T13:52:57.862Z,8.10
2019-02-26T13:55:26.307Z,1.50
2019-02-26T13:57:54.735Z,2.67
2019-02-26T14:00:26.396Z,1.40
2019-02-26T14:02:53.637Z,1.40
2019-02-26T14:05:22.137Z,3.90
2019-02-26T14:07:50.717Z,1.83
2019-02-26T14:10:21.244Z,2.60
2019-02-26T14:12:49.675Z,1.67
2019-02-26T14:15:25.495Z,6.93
2019-02-26T14:17:54.550Z,3.03
2019-02-26T14:20:23.170Z,7.40
2019-02-26T14:22:51.783Z,3.47
2019-02-26T14:25:20.294Z,5.50
2019-02-26T14:27:48.716Z,2.73
2019-02-26T14:30:21.256Z,4.47
2019-02-26T14:32:49.795Z,3.00
2019-02-26T14:35:18.234Z,3.20
2019-02-26T14:37:46.659Z,2.70
2019-02-26T14:40:17.202Z,2.83
2019-02-26T14:42:45.720Z,2.33
2019-02-26T14:45:19.462Z,3.60
2019-02-26T14:47:47.912Z,4.10
2019-02-26T14:50:20.246Z,12.23
2019-02-26T14:52:48.695Z,4.23
2019-02-26T14:55:17.291Z,3.30
2019-02-26T14:57:45.790Z,4.00
2019-02-26T15:00:31.362Z,2.87
2019-02-26T15:02:59.813Z,3.80
2019-02-26T15:05:28.232Z,4.00
2019-02-26T15:07:56.692Z,11.30
2019-02-26T15:10:25.194Z,3.30
2019-02-26T15:12:53.912Z,5.70
2019-02-26T15:15:22.355Z,4.07
2019-02-26T15:17:50.846Z,2.83
2019-02-26T15:20:21.380Z,3.87
2019-02-26T15:22:49.999Z,2.90
2019-02-26T15:25:31.811Z,2.70
2019-02-26T15:28:04.954Z,5.07
2019-02-26T15:30:30.575Z,3.30
2019-02-26T15:32:58.993Z,1.63
2019-02-26T15:35:27.599Z,2.40
2019-02-26T15:37:56.030Z,4.60
2019-02-26T15:40:24.536Z,2.30
2019-02-26T15:42:56.219Z,4.63
2019-02-26T15:45:28.961Z,1.80
2019-02-26T15:47:57.714Z,1.53
2019-02-26T15:50:26.238Z,1.83
2019-02-26T15:52:54.664Z,2.60
2019-02-26T15:55:25.869Z,2.50
2019-02-26T15:57:55.053Z,7.30
2019-02-26T16:00:26.572Z,2.40
2019-02-26T16:02:59.030Z,10.80
2019-02-26T16:05:28.834Z,6.10
2019-02-26T16:07:57.290Z,9.37
2019-02-26T16:10:25.728Z,14.20
2019-02-26T16:12:54.504Z,11.20
2019-02-26T16:15:22.979Z,13.93
2019-02-26T16:17:52.465Z,11.97
2019-02-26T16:20:21.543Z,4.37
2019-02-26T16:22:50.531Z,3.50
2019-02-26T16:25:19.610Z,6.80
2019-02-26T16:27:48.462Z,7.53
2019-02-26T16:30:19.526Z,13.20
2019-02-26T16:32:48.908Z,12.23
2019-02-26T16:35:17.905Z,12.97
2019-02-26T16:37:46.353Z,25.33
2019-02-26T16:40:16.029Z,13.60
2019-02-26T16:42:45.142Z,20.13
2019-02-26T16:45:15.896Z,9.50
2019-02-26T16:47:46.014Z,7.43
2019-02-26T16:50:18.455Z,12.40
2019-02-26T16:52:46.914Z,9.07
2019-02-26T16:55:17.339Z,9.97
2019-02-26T16:57:46.205Z,6.43
2019-02-26T17:00:23.057Z,9.10
2019-02-26T17:02:51.506Z,14.13
2019-02-26T17:05:19.926Z,9.53
2019-02-26T17:07:48.745Z,9.20
2019-02-26T17:10:18.723Z,24.47
2019-02-26T17:12:51.453Z,26.43
2019-02-26T17:15:24.625Z,25.93
2019-02-26T17:17:52.401Z,12.80
2019-02-26T17:20:22.636Z,23.47
2019-02-26T17:22:51.792Z,13.47
2019-02-26T17:25:21.257Z,24.40
2019-02-26T17:27:49.708Z,20.90
2019-02-26T17:30:20.845Z,27.33
2019-02-26T17:32:48.908Z,22.43
2019-02-26T17:35:17.471Z,16.63
2019-02-26T17:37:46.151Z,16.60
2019-02-26T17:40:23.087Z,29.17
2019-02-26T17:42:51.987Z,17.03
2019-02-26T17:45:25.750Z,29.50
2019-02-26T17:47:56.538Z,19.67
2019-02-26T17:50:35.959Z,13.73
2019-02-26T17:53:04.564Z,13.30
2019-02-26T17:55:32.989Z,10.97
2019-02-26T17:58:01.434Z,15.37
2019-02-26T18:00:31.637Z,11.70
2019-02-26T18:03:00.087Z,11.73
2019-02-26T18:05:28.637Z,15.73
2019-02-26T18:07:57.098Z,12.17
2019-02-26T18:10:26.668Z,20.93
2019-02-26T18:12:55.502Z,8.67
2019-02-26T18:15:24.016Z,22.27
2019-02-26T18:17:52.463Z,10.53
2019-02-26T18:20:22.890Z,20.60
2019-02-26T18:22:51.485Z,13.00
2019-02-26T18:25:24.686Z,17.27
2019-02-26T18:27:53.122Z,13.20
2019-02-26T18:30:27.519Z,8.33
2019-02-26T18:32:58.842Z,18.77
2019-02-26T18:35:26.170Z,16.77
2019-02-26T18:37:54.622Z,20.53
2019-02-26T18:40:23.042Z,10.73
2019-02-26T18:42:52.437Z,11.30
2019-02-26T18:45:29.149Z,6.57
2019-02-26T18:47:57.808Z,9.40
2019-02-26T18:50:29.337Z,11.27
2019-02-26T18:52:58.363Z,15.00
2019-02-26T18:55:28.473Z,12.10
2019-02-26T18:57:57.534Z,9.63
2019-02-26T19:00:31.094Z,13.83
2019-02-26T19:02:59.641Z,11.30
2019-02-26T19:05:28.144Z,11.70
2019-02-26T19:07:56.574Z,8.03
2019-02-26T19:10:25.010Z,9.33
2019-02-26T19:12:53.527Z,11.30
2019-02-26T19:15:24.311Z,24.70
2019-02-26T19:17:54.290Z,16.87
2019-02-26T19:20:25.627Z,13.63
2019-02-26T19:22:54.129Z,24.00
2019-02-26T19:25:22.577Z,23.30
2019-02-26T19:27:53.068Z,21.47
2019-02-26T19:30:22.633Z,14.57
2019-02-26T19:32:51.131Z,15.30
2019-02-26T19:35:19.773Z,10.33
2019-02-26T19:37:52.717Z,15.10
2019-02-26T19:40:24.008Z,10.40
2019-02-26T19:42:52.819Z,10.20
2019-02-26T19:45:21.909Z,13.33
2019-02-26T19:47:50.429Z,19.60
2019-02-26T19:50:18.880Z,10.47
2019-02-26T19:52:56.439Z,8.03
2019-02-26T19:55:23.560Z,7.40
2019-02-26T19:57:52.081Z,9.17
2019-02-26T20:00:20.595Z,7.60
2019-02-26T20:02:49.010Z,14.83
2019-02-26T20:05:17.449Z,9.70
2019-02-26T20:07:45.872Z,6.67
2019-02-26T20:10:18.735Z,7.40
2019-02-26T20:12:47.151Z,12.47
2019-02-26T20:15:15.662Z,15.80
2019-02-26T20:17:44.092Z,6.13
2019-02-26T20:20:17.197Z,10.47
2019-02-26T20:22:45.657Z,7.60
2019-02-26T20:25:17.098Z,9.20
2019-02-26T20:27:45.891Z,5.93
2019-02-26T20:30:19.040Z,6.33
2019-02-26T20:32:47.616Z,7.27
2019-02-26T20:35:16.119Z,8.87
2019-02-26T20:37:44.585Z,11.97
2019-02-26T20:40:18.037Z,14.60
2019-02-26T20:42:46.462Z,9.17
2019-02-26T20:45:18.061Z,18.80
2019-02-26T20:47:47.017Z,10.60
2019-02-26T20:50:20.012Z,15.13
2019-02-26T20:52:45.806Z,10.33
2019-02-26T20:55:20.257Z,11.53
2019-02-26T20:57:48.863Z,9.63
2019-02-26T21:00:19.345Z,25.00
2019-02-26T21:02:48.097Z,20.03
2019-02-26T21:05:16.705Z,14.80
2019-02-26T21:07:45.199Z,13.83
2019-02-26T21:10:20.530Z,18.60
2019-02-26T21:12:49.226Z,7.93
2019-02-26T21:15:25.514Z,15.33
2019-02-26T21:17:57.714Z,9.20
2019-02-26T21:20:24.106Z,8.57
2019-02-26T21:22:54.536Z,8.93
2019-02-26T21:25:22.699Z,8.27
2019-02-26T21:27:51.162Z,10.70
2019-02-26T21:30:26.726Z,4.90
2019-02-26T21:32:57.815Z,11.30
2019-02-26T21:35:25.379Z,14.33
2019-02-26T21:37:53.813Z,5.50
2019-02-26T21:40:22.240Z,5.67
2019-02-26T21:42:50.692Z,6.13
2019-02-26T21:45:20.435Z,5.90
2019-02-26T21:47:49.008Z,8.00
2019-02-26T21:50:22.079Z,5.23
2019-02-26T21:52:59.144Z,6.03
2019-02-26T21:55:17.744Z,6.93
2019-02-26T21:57:46.170Z,4.87
2019-02-26T22:00:22.466Z,4.10
2019-02-26T22:02:52.386Z,6.67
2019-02-26T22:05:21.156Z,14.23
2019-02-26T22:07:52.081Z,9.30
2019-02-26T22:10:21.228Z,15.60
2019-02-26T22:12:49.700Z,8.10
2019-02-26T22:15:18.242Z,6.17
2019-02-26T22:17:46.779Z,11.17
2019-02-26T22:20:35.530Z,11.93
2019-02-26T22:22:50.055Z,5.80
2019-02-26T22:25:18.580Z,3.67
2019-02-26T22:27:47.095Z,6.00
2019-02-26T22:30:21.990Z,6.00
2019-02-26T22:32:50.100Z,6.20
2019-02-26T22:35:18.711Z,8.10
2019-02-26T22:37:47.161Z,6.27
2019-02-26T22:40:15.985Z,8.10
2019-02-26T22:42:44.430Z,7.23
2019-02-26T22:45:14.488Z,8.10
2019-02-26T22:47:44.365Z,5.27
2019-02-26T22:50:17.516Z,8.17
2019-02-26T22:52:46.043Z,5.50
2019-02-26T22:55:16.471Z,9.17
2019-02-26T22:57:45.966Z,8.30
2019-02-26T23:00:50.822Z,8.67
2019-02-26T23:03:19.259Z,6.10
2019-02-26T23:05:47.759Z,10.10
2019-02-26T23:08:16.528Z,9.83
2019-02-26T23:10:45.022Z,4.37
2019-02-26T23:13:13.878Z,6.63
2019-02-26T23:15:44.912Z,8.93
2019-02-26T23:18:13.178Z,6.27
2019-02-26T23:20:42.747Z,7.27
2019-02-26T23:23:12.028Z,8.20
2019-02-26T23:25:40.559Z,7.10
2019-02-26T23:28:08.989Z,6.77
2019-02-26T23:30:37.674Z,6.20
2019-02-26T23:33:07.394Z,8.40
2019-02-26T23:35:36.130Z,10.63
2019-02-26T23:38:07.980Z,5.03
2019-02-26T23:40:34.778Z,4.87
2019-02-26T23:43:03.366Z,4.37
2019-02-26T23:45:31.798Z,7.40
2019-02-26T23:48:00.225Z,6.40
2019-02-26T23:50:28.695Z,12.27
2019-02-26T23:53:00.858Z,5.53
2019-02-26T23:55:27.897Z,15.43
2019-02-26T23:57:57.919Z,12.10
